Time;durP1;ratioP1;P1;durP2;ratioP2;P2;SDS_P1;SDS_P2;PMS_P1;PMS_P2;Temp;Humidity;BMP_temperature;BMP_pressure;BME280_temperature;BME280_humidity;BME280_pressure;Samples;Min_cycle;Max_cycle;Signal;HPM_P1;HPM_P2
2023/07/20 00:00:21;;;;;;;12.35;5.45;;;;;16.80;96079.00;;;;8223076;28;20207;-75
2023/07/20 00:04:42;;;;;;;12.10;4.60;;;;;16.70;96082.00;;;;8216246;28;20295;-75
2023/07/20 00:08:51;;;;;;;13.93;4.90;;;;;16.70;96082.00;;;;8222616;28;20273;-75
2023/07/20 00:12:55;;;;;;;13.85;6.05;;;;;16.60;96068.00;;;;8218638;28;20231;-75
2023/07/20 00:16:59;;;;;;;21.90;5.80;;;;;16.60;96074.00;;;;8255402;28;20641;-75
2023/07/20 00:21:04;;;;;;;20.30;5.85;;;;;16.70;96081.00;;;;8254802;28;20207;-75
2023/07/20 00:25:12;;;;;;;11.60;5.40;;;;;16.70;96079.00;;;;8246549;28;20199;-75
2023/07/20 00:29:18;;;;;;;11.57;5.78;;;;;16.80;96072.00;;;;8253967;28;20203;-75
2023/07/20 00:33:23;;;;;;;16.55;5.45;;;;;16.80;96074.00;;;;8244166;28;20285;-75
2023/07/20 00:37:28;;;;;;;11.48;6.45;;;;;16.90;96075.00;;;;8237601;28;20202;-75
2023/07/20 00:41:34;;;;;;;14.63;5.88;;;;;16.90;96067.00;;;;8254427;28;20210;-76
2023/07/20 00:45:39;;;;;;;16.02;6.20;;;;;17.00;96069.00;;;;8253204;28;20293;-75
2023/07/20 00:49:44;;;;;;;17.95;6.70;;;;;17.10;96070.00;;;;8253137;28;20231;-75
2023/07/20 00:53:49;;;;;;;18.40;6.40;;;;;17.10;96065.00;;;;8247555;28;20733;-75
2023/07/20 00:57:54;;;;;;;17.85;6.28;;;;;17.10;96080.00;;;;8253295;28;20241;-75
2023/07/20 01:01:59;;;;;;;14.48;6.10;;;;;17.10;96081.00;;;;8252941;28;20317;-75
2023/07/20 01:06:13;;;;;;;30.77;6.85;;;;;17.10;96075.00;;;;8251695;28;20199;-76
2023/07/20 01:10:22;;;;;;;19.20;6.70;;;;;17.00;96065.00;;;;8251368;28;20207;-75
2023/07/20 01:14:30;;;;;;;22.23;7.50;;;;;17.00;96058.00;;;;8253903;28;20804;-75
2023/07/20 01:18:34;;;;;;;12.27;6.68;;;;;16.90;96061.00;;;;8253512;28;20231;-75
2023/07/20 01:22:58;;;;;;;14.82;6.70;;;;;16.90;96067.00;;;;8251537;28;20217;-76
2023/07/20 01:27:50;;;;;;;15.68;6.82;;;;;17.00;96072.00;;;;8252032;28;20202;-75
2023/07/20 01:31:55;;;;;;;14.30;7.20;;;;;17.10;96060.00;;;;8254211;28;20214;-75
2023/07/20 01:36:02;;;;;;;10.70;5.95;;;;;17.10;96055.00;;;;8251768;28;20326;-75
2023/07/20 01:40:11;;;;;;;18.40;7.15;;;;;17.20;96060.00;;;;8251995;28;20318;-75
2023/07/20 01:44:14;;;;;;;16.88;6.32;;;;;17.30;96055.00;;;;8252951;28;20282;-75
2023/07/20 01:48:19;;;;;;;15.77;6.53;;;;;17.30;96061.00;;;;8250170;28;20265;-75
2023/07/20 01:52:22;;;;;;;16.35;7.47;;;;;17.30;96078.00;;;;8251841;28;20203;-74
2023/07/20 01:56:28;;;;;;;18.75;6.65;;;;;17.30;96085.00;;;;8242585;28;20317;-76
2023/07/20 02:00:37;;;;;;;22.23;6.95;;;;;17.30;96090.00;;;;8258897;28;20299;-76
2023/07/20 02:04:42;;;;;;;13.63;6.40;;;;;17.30;96088.00;;;;8255218;28;20253;-75
2023/07/20 02:08:46;;;;;;;12.93;6.10;;;;;17.20;96095.00;;;;8253129;28;20210;-75
2023/07/20 02:12:50;;;;;;;10.95;5.82;;;;;17.20;96080.00;;;;8258772;28;20553;-75
2023/07/20 02:16:57;;;;;;;11.40;5.60;;;;;17.20;96069.00;;;;8255352;28;20203;-77
2023/07/20 02:21:05;;;;;;;11.98;5.65;;;;;17.20;96080.00;;;;8258712;28;20564;-75
2023/07/20 02:25:12;;;;;;;10.70;5.18;;;;;17.20;96090.00;;;;8251627;28;20199;-76
2023/07/20 02:29:21;;;;;;;9.48;5.70;;;;;17.20;96078.00;;;;8252902;28;20242;-76
2023/07/20 02:33:26;;;;;;;10.55;5.70;;;;;17.20;96079.00;;;;8236891;28;20865;-75
2023/07/20 02:37:31;;;;;;;10.15;5.20;;;;;17.30;96089.00;;;;8255690;28;20211;-75
2023/07/20 02:41:37;;;;;;;8.93;5.82;;;;;17.30;96101.00;;;;8258734;28;20744;-76
2023/07/20 02:45:42;;;;;;;13.52;6.10;;;;;17.30;96102.00;;;;8258537;28;20780;-76
2023/07/20 02:49:49;;;;;;;10.80;5.50;;;;;17.40;96091.00;;;;8233420;28;20218;-75
2023/07/20 02:53:55;;;;;;;13.98;5.30;;;;;17.40;96078.00;;;;8258069;28;20663;-75
2023/07/20 02:57:58;;;;;;;15.52;5.03;;;;;17.30;96081.00;;;;8257271;28;20236;-75
2023/07/20 03:02:04;;;;;;;11.82;5.43;;;;;17.30;96094.00;;;;8296111;23;20211;-75
2023/07/20 03:06:12;;;;;;;12.82;5.28;;;;;17.30;96099.00;;;;8288794;28;20253;-75
2023/07/20 03:10:16;;;;;;;10.65;5.15;;;;;17.30;96088.00;;;;8289438;28;20833;-75
2023/07/20 03:14:23;;;;;;;10.63;5.45;;;;;17.20;96091.00;;;;8289599;28;20794;-75
2023/07/20 03:18:26;;;;;;;9.65;5.03;;;;;17.30;96096.00;;;;8272109;28;20288;-75
2023/07/20 03:22:29;;;;;;;9.45;4.95;;;;;17.30;96105.00;;;;8289660;28;20344;-75
2023/07/20 03:26:34;;;;;;;7.07;4.78;;;;;17.30;96104.00;;;;8289782;28;20210;-75
2023/07/20 03:30:37;;;;;;;9.45;4.78;;;;;17.20;96098.00;;;;8277986;28;20664;-75
2023/07/20 03:34:41;;;;;;;9.85;4.88;;;;;17.20;96099.00;;;;8277925;28;20232;-75
2023/07/20 03:38:46;;;;;;;10.57;4.93;;;;;17.10;96105.00;;;;8288950;28;20233;-75
2023/07/20 03:42:51;;;;;;;8.82;4.68;;;;;17.10;96109.00;;;;8269914;28;20281;-75
2023/07/20 03:46:54;;;;;;;7.43;5.03;;;;;17.10;96111.00;;;;8280380;28;20228;-74
2023/07/20 03:50:58;;;;;;;10.43;4.88;;;;;17.10;96104.00;;;;8289049;28;20297;-74
2023/07/20 03:55:02;;;;;;;11.13;4.68;;;;;17.00;96109.00;;;;8289198;28;20711;-74
2023/07/20 03:59:13;;;;;;;9.10;4.35;;;;;17.10;96105.00;;;;8288013;28;20233;-74
2023/07/20 04:03:18;;;;;;;11.02;4.10;;;;;17.20;96109.00;;;;8271754;28;20244;-74
2023/07/20 04:07:26;;;;;;;10.10;5.20;;;;;17.20;96123.00;;;;8254288;28;20402;-74
2023/07/20 04:11:34;;;;;;;8.63;4.82;;;;;17.30;96116.00;;;;8254620;28;20207;-74
2023/07/20 04:15:38;;;;;;;7.70;4.95;;;;;17.30;96123.00;;;;8255912;28;20266;-73
2023/07/20 04:19:44;;;;;;;7.72;4.57;;;;;17.40;96127.00;;;;8237722;28;20851;-74
2023/07/20 04:23:51;;;;;;;8.82;4.40;;;;;17.50;96123.00;;;;8255434;28;20223;-74
2023/07/20 04:27:55;;;;;;;7.93;4.57;;;;;17.50;96122.00;;;;8235553;28;20260;-73
2023/07/20 04:32:00;;;;;;;6.95;4.13;;;;;17.60;96121.00;;;;8255050;28;20214;-73
2023/07/20 04:36:04;;;;;;;6.75;3.97;;;;;17.60;96134.00;;;;8250910;28;20229;-73
2023/07/20 04:40:08;;;;;;;5.97;4.00;;;;;17.70;96127.00;;;;8254473;28;20203;-73
2023/07/20 04:44:17;;;;;;;6.57;4.15;;;;;17.70;96134.00;;;;8254781;28;21012;-73
2023/07/20 04:48:21;;;;;;;7.05;4.10;;;;;17.80;96134.00;;;;8252668;28;20845;-74
2023/07/20 04:52:24;;;;;;;11.35;4.63;;;;;17.80;96134.00;;;;8254721;28;20683;-73
2023/07/20 04:56:43;;;;;;;5.10;3.85;;;;;17.80;96140.00;;;;8255070;28;20234;-74
2023/07/20 05:00:55;;;;;;;8.40;4.45;;;;;17.90;96149.00;;;;8252840;28;20205;-74
2023/07/20 05:05:01;;;;;;;10.90;4.30;;;;;18.00;96142.00;;;;8246089;28;20313;-74
2023/07/20 05:09:08;;;;;;;10.73;4.57;;;;;18.20;96146.00;;;;8253220;28;20215;-73
2023/07/20 05:13:15;;;;;;;13.95;4.03;;;;;18.30;96156.00;;;;8252971;28;20210;-73
2023/07/20 05:17:19;;;;;;;6.93;3.92;;;;;18.50;96159.00;;;;8253113;28;20237;-73
2023/07/20 05:21:24;;;;;;;6.68;4.32;;;;;18.60;96160.00;;;;8254359;28;20214;-73
2023/07/20 05:25:28;;;;;;;14.30;5.10;;;;;18.70;96157.00;;;;8259725;28;20771;-73
2023/07/20 05:29:33;;;;;;;7.68;4.45;;;;;18.70;96160.00;;;;8260352;28;20206;-71
2023/07/20 05:33:40;;;;;;;13.18;5.10;;;;;18.80;96150.00;;;;8227737;28;20713;-71
2023/07/20 05:37:47;;;;;;;11.18;5.63;;;;;19.00;96156.00;;;;8258475;28;20296;-72
2023/07/20 05:41:53;;;;;;;7.72;5.00;;;;;19.10;96164.00;;;;8260255;28;20242;-72
2023/07/20 05:45:56;;;;;;;16.10;5.68;;;;;19.30;96170.00;;;;8260501;28;20248;-72
2023/07/20 05:50:01;;;;;;;10.63;5.35;;;;;19.40;96172.00;;;;8258755;28;20211;-71
2023/07/20 05:54:07;;;;;;;10.25;6.32;;;;;19.60;96171.00;;;;8260607;28;20325;-72
2023/07/20 05:58:12;;;;;;;10.05;6.55;;;;;19.80;96178.00;;;;8259306;28;20207;-71
2023/07/20 06:02:15;;;;;;;12.18;6.63;;;;;20.00;96177.00;;;;8259638;28;20759;-71
2023/07/20 06:06:18;;;;;;;16.10;7.03;;;;;20.20;96182.00;;;;8258873;28;20290;-71
2023/07/20 06:10:24;;;;;;;7.55;5.80;;;;;20.40;96188.00;;;;8259352;28;20203;-70
2023/07/20 06:14:27;;;;;;;9.07;5.95;;;;;20.50;96186.00;;;;8259633;28;20590;-70
2023/07/20 06:18:31;;;;;;;9.55;6.22;;;;;20.80;96191.00;;;;8258331;28;20758;-70
2023/07/20 06:22:37;;;;;;;12.93;5.75;;;;;21.20;96185.00;;;;8259788;28;20289;-71
2023/07/20 06:26:44;;;;;;;9.57;5.40;;;;;21.70;96192.00;;;;8258542;28;20241;-71
2023/07/20 06:30:50;;;;;;;11.32;5.93;;;;;21.80;96191.00;;;;8236999;28;20607;-70
2023/07/20 06:34:53;;;;;;;9.68;5.80;;;;;21.80;96189.00;;;;8256758;28;20341;-70
2023/07/20 06:38:57;;;;;;;12.27;5.75;;;;;22.30;96192.00;;;;8258029;28;20215;-69
2023/07/20 06:43:04;;;;;;;7.28;5.13;;;;;22.90;96187.00;;;;8259230;28;20195;-70
2023/07/20 06:47:12;;;;;;;8.05;5.40;;;;;23.40;96186.00;;;;8258398;28;20215;-69
2023/07/20 06:51:16;;;;;;;10.10;5.30;;;;;23.90;96193.00;;;;8257854;28;21004;-70
2023/07/20 06:55:19;;;;;;;6.43;5.13;;;;;24.00;96190.00;;;;8241475;28;20234;-70
2023/07/20 06:59:29;;;;;;;13.60;4.65;;;;;24.10;96199.00;;;;8256872;28;20265;-70
2023/07/20 07:03:36;;;;;;;9.90;5.13;;;;;24.10;96201.00;;;;8257044;28;20794;-70
2023/07/20 07:07:39;;;;;;;10.80;5.03;;;;;24.40;96193.00;;;;8252965;28;20234;-70
2023/07/20 07:11:43;;;;;;;9.88;5.10;;;;;24.90;96191.00;;;;8258111;28;20206;-70
2023/07/20 07:15:48;;;;;;;10.05;4.75;;;;;25.40;96193.00;;;;8250050;28;20325;-70
2023/07/20 07:19:56;;;;;;;8.05;4.32;;;;;25.50;96197.00;;;;8234021;28;20230;-70
2023/07/20 07:24:02;;;;;;;10.05;4.93;;;;;25.30;96206.00;;;;8256274;28;20255;-70
2023/07/20 07:28:05;;;;;;;6.90;4.57;;;;;25.20;96202.00;;;;8255113;28;20787;-70
2023/07/20 07:32:10;;;;;;;7.07;3.70;;;;;25.30;96199.00;;;;8256394;28;20289;-71
2023/07/20 07:36:15;;;;;;;8.48;4.28;;;;;25.20;96200.00;;;;8262190;28;20330;-70
2023/07/20 07:40:20;;;;;;;7.65;4.18;;;;;25.10;96218.00;;;;8244706;28;20203;-70
2023/07/20 07:44:28;;;;;;;9.73;4.40;;;;;25.50;96214.00;;;;8257746;28;20214;-70
2023/07/20 07:48:37;;;;;;;7.47;3.60;;;;;25.80;96212.00;;;;8240989;28;20210;-71
2023/07/20 07:52:43;;;;;;;8.27;4.07;;;;;25.50;96215.00;;;;8255173;28;20294;-71
2023/07/20 07:56:46;;;;;;;12.00;3.88;;;;;25.60;96216.00;;;;8254395;28;20346;-70
2023/07/20 08:00:49;;;;;;;8.85;3.50;;;;;26.00;96216.00;;;;8253861;28;20293;-70
2023/07/20 08:04:55;;;;;;;8.90;3.70;;;;;26.20;96219.00;;;;8237426;28;20242;-70
2023/07/20 08:08:59;;;;;;;8.25;3.20;;;;;26.50;96227.00;;;;8254146;28;20240;-71
2023/07/20 08:13:02;;;;;;;7.22;3.05;;;;;26.80;96222.00;;;;8254743;28;20214;-70
2023/07/20 08:17:09;;;;;;;6.90;3.40;;;;;27.10;96231.00;;;;8253254;28;20242;-71
2023/07/20 08:21:14;;;;;;;5.38;3.17;;;;;27.10;96229.00;;;;8251367;28;20294;-71
2023/07/20 08:25:17;;;;;;;4.82;2.63;;;;;27.20;96236.00;;;;8250406;28;20265;-71
2023/07/20 08:29:23;;;;;;;5.05;2.50;;;;;27.40;96240.00;;;;8253690;28;20203;-71
2023/07/20 08:33:29;;;;;;;4.72;2.70;;;;;27.40;96236.00;;;;8253831;28;20210;-70
2023/07/20 08:37:35;;;;;;;6.30;2.60;;;;;27.60;96237.00;;;;8237749;28;20238;-71
2023/07/20 08:41:39;;;;;;;8.43;2.60;;;;;27.70;96245.00;;;;8252851;28;20298;-72
2023/07/20 08:45:45;;;;;;;2.95;2.25;;;;;28.10;96248.00;;;;8253595;28;20249;-71
2023/07/20 08:49:49;;;;;;;5.00;2.30;;;;;28.20;96236.00;;;;8251572;28;20210;-71
2023/07/20 08:54:01;;;;;;;2.38;2.17;;;;;28.20;96231.00;;;;8253341;28;20207;-71
2023/07/20 08:58:09;;;;;;;5.18;2.22;;;;;28.30;96242.00;;;;8253171;28;20389;-72
2023/07/20 09:02:17;;;;;;;2.30;2.10;;;;;28.50;96245.00;;;;8246697;28;20230;-71
2023/07/20 09:06:22;;;;;;;4.43;2.05;;;;;28.70;96247.00;;;;8253102;28;20218;-72
2023/07/20 09:10:37;;;;;;;6.00;2.05;;;;;29.10;96236.00;;;;8250780;28;20290;-72
2023/07/20 09:14:40;;;;;;;4.70;2.10;;;;;28.70;96238.00;;;;8246465;28;20210;-72
2023/07/20 09:18:43;;;;;;;4.63;2.10;;;;;28.60;96241.00;;;;8252771;28;20638;-72
2023/07/20 09:22:46;;;;;;;3.42;2.15;;;;;28.70;96256.00;;;;8252477;28;20213;-72
2023/07/20 09:26:52;;;;;;;3.28;2.00;;;;;28.20;96236.00;;;;8245162;28;20295;-71
2023/07/20 09:30:58;;;;;;;2.53;1.92;;;;;28.90;96235.00;;;;8255141;28;20213;-72
2023/07/20 09:35:01;;;;;;;4.85;1.90;;;;;29.10;96228.00;;;;8252537;28;20310;-71
2023/07/20 09:39:13;;;;;;;2.15;1.95;;;;;29.10;96242.00;;;;8258884;28;20728;-72
2023/07/20 09:43:33;;;;;;;3.70;2.30;;;;;29.20;96231.00;;;;8225424;28;20715;-72
2023/07/20 09:47:38;;;;;;;3.53;1.70;;;;;29.20;96227.00;;;;8251073;28;20214;-72
2023/07/20 09:51:43;;;;;;;7.32;2.25;;;;;29.50;96233.00;;;;8253255;28;20230;-73
2023/07/20 09:55:49;;;;;;;2.60;1.98;;;;;29.50;96223.00;;;;8254437;28;20318;-72
2023/07/20 09:59:57;;;;;;;3.28;2.03;;;;;30.10;96236.00;;;;8245145;28;20237;-72
2023/07/20 10:04:24;;;;;;;3.17;2.08;;;;;30.20;96221.00;;;;8250722;28;20235;-72
2023/07/20 10:08:31;;;;;;;2.92;2.40;;;;;30.10;96219.00;;;;8252232;28;20245;-73
2023/07/20 10:12:38;;;;;;;2.33;2.00;;;;;30.60;96227.00;;;;8257152;28;20616;-72
2023/07/20 10:16:48;;;;;;;2.38;1.88;;;;;30.70;96219.00;;;;8257892;28;20273;-72
2023/07/20 10:20:55;;;;;;;2.53;1.95;;;;;30.60;96220.00;;;;8249997;28;20267;-72
2023/07/20 10:25:02;;;;;;;6.78;2.10;;;;;31.00;96222.00;;;;8258677;28;20211;-72
2023/07/20 10:29:05;;;;;;;2.10;1.70;;;;;31.30;96214.00;;;;8257799;28;20234;-72
2023/07/20 10:33:10;;;;;;;2.05;1.90;;;;;31.60;96208.00;;;;8257001;28;20209;-73
2023/07/20 10:37:50;;;;;;;2.45;2.00;;;;;32.00;96213.00;;;;8257456;28;20234;-72
2023/07/20 10:42:02;;;;;;;2.08;1.88;;;;;30.10;96219.00;;;;8257651;28;20752;-71
2023/07/20 10:46:16;;;;;;;3.17;1.77;;;;;28.50;96205.00;;;;8258007;28;20502;-72
2023/07/20 10:50:22;;;;;;;2.30;2.10;;;;;29.20;96214.00;;;;8239239;28;20714;-73
2023/07/20 10:54:48;;;;;;;5.88;2.05;;;;;30.40;96205.00;;;;8257227;28;20572;-72
2023/07/20 10:58:59;;;;;;;2.03;1.88;;;;;31.30;96196.00;;;;8256782;28;20241;-72
2023/07/20 11:03:03;;;;;;;3.40;2.17;;;;;31.70;96206.00;;;;8238586;28;20653;-72
2023/07/20 11:07:08;;;;;;;2.03;1.83;;;;;31.80;96190.00;;;;8256395;28;20207;-73
2023/07/20 11:11:29;;;;;;;4.97;2.08;;;;;32.10;96196.00;;;;8255954;28;20302;-72
2023/07/20 11:15:46;;;;;;;3.40;2.20;;;;;32.10;96189.00;;;;8245078;28;20706;-72
2023/07/20 11:19:56;;;;;;;3.58;1.80;;;;;31.10;96195.00;;;;8247113;28;20761;-71
2023/07/20 11:24:06;;;;;;;2.05;1.95;;;;;30.60;96183.00;;;;8256218;28;20207;-71
2023/07/20 11:28:15;;;;;;;5.35;2.10;;;;;31.60;96188.00;;;;8255759;28;20199;-72
2023/07/20 11:32:22;;;;;;;4.70;2.28;;;;;32.00;96180.00;;;;8259062;28;21021;-71
2023/07/20 11:36:25;;;;;;;3.05;2.15;;;;;31.80;96188.00;;;;8255660;28;20230;-71
2023/07/20 11:40:34;;;;;;;2.50;2.08;;;;;30.90;96190.00;;;;8254840;28;20718;-73
2023/07/20 11:44:37;;;;;;;2.10;1.88;;;;;30.10;96187.00;;;;8255937;28;20289;-73
2023/07/20 11:48:40;;;;;;;1.90;1.80;;;;;29.60;96188.00;;;;8257045;28;20215;-72
2023/07/20 11:52:50;;;;;;;4.03;2.25;;;;;30.50;96173.00;;;;8256709;28;20203;-71
2023/07/20 11:56:56;;;;;;;3.35;1.80;;;;;31.30;96175.00;;;;8254749;28;20230;-72
2023/07/20 12:01:03;;;;;;;2.95;1.90;;;;;31.50;96167.00;;;;8247925;28;20225;-71
2023/07/20 12:05:12;;;;;;;5.30;2.00;;;;;31.60;96157.00;;;;8257201;28;20700;-73
2023/07/20 12:09:18;;;;;;;2.40;1.80;;;;;31.20;96157.00;;;;8231414;28;20326;-72
2023/07/20 12:13:26;;;;;;;2.33;1.65;;;;;31.40;96145.00;;;;8254636;28;20242;-72
2023/07/20 12:17:30;;;;;;;3.15;1.85;;;;;32.30;96145.00;;;;8254042;28;20318;-71
2023/07/20 12:21:36;;;;;;;9.52;2.05;;;;;32.40;96138.00;;;;8254732;28;20233;-71
2023/07/20 12:25:40;;;;;;;3.22;1.65;;;;;32.60;96145.00;;;;8254258;28;20218;-74
2023/07/20 12:29:47;;;;;;;1.73;1.63;;;;;33.10;96135.00;;;;8253838;28;20210;-72
2023/07/20 12:33:52;;;;;;;2.47;1.80;;;;;33.30;96136.00;;;;8253040;28;20686;-74
2023/07/20 12:37:59;;;;;;;5.25;2.00;;;;;32.10;96130.00;;;;8247191;28;20986;-71
2023/07/20 12:42:02;;;;;;;2.55;1.70;;;;;30.90;96122.00;;;;8254065;28;20293;-72
2023/07/20 12:46:07;;;;;;;2.70;1.60;;;;;30.60;96125.00;;;;8253182;28;20290;-72
2023/07/20 12:50:11;;;;;;;5.25;1.83;;;;;30.60;96129.00;;;;8252502;28;20203;-73
2023/07/20 12:54:14;;;;;;;3.67;1.90;;;;;30.20;96119.00;;;;8245585;28;20676;-71
2023/07/20 12:58:19;;;;;;;1.70;1.60;;;;;29.80;96121.00;;;;8252590;28;20226;-71
2023/07/20 13:02:24;;;;;;;2.05;1.80;;;;;29.90;96117.00;;;;8252916;28;20679;-73
2023/07/20 13:06:30;;;;;;;2.42;1.85;;;;;30.10;96116.00;;;;8246435;28;20211;-70
2023/07/20 13:10:33;;;;;;;2.35;1.80;;;;;30.00;96121.00;;;;8250074;28;20210;-72
2023/07/20 13:14:36;;;;;;;3.65;1.60;;;;;29.90;96115.00;;;;8253222;28;20238;-72
2023/07/20 13:18:42;;;;;;;2.08;1.70;;;;;30.20;96099.00;;;;8251014;28;20248;-74
2023/07/20 13:22:50;;;;;;;4.13;1.85;;;;;30.40;96109.00;;;;8253168;28;20715;-71
2023/07/20 13:26:57;;;;;;;2.05;1.85;;;;;30.10;96115.00;;;;8251248;28;20689;-73
2023/07/20 13:31:05;;;;;;;2.85;1.75;;;;;30.20;96107.00;;;;8251781;28;20820;-73
2023/07/20 13:35:10;;;;;;;5.03;1.77;;;;;30.80;96099.00;;;;8252728;28;20301;-73
2023/07/20 13:39:15;;;;;;;3.15;1.80;;;;;31.20;96103.00;;;;8257196;28;20273;-72
2023/07/20 13:43:21;;;;;;;1.83;1.60;;;;;31.70;96093.00;;;;8252606;28;20214;-71
2023/07/20 13:47:31;;;;;;;1.88;1.60;;;;;31.80;96104.00;;;;8263562;28;20245;-73
2023/07/20 13:51:43;;;;;;;1.77;1.67;;;;;31.20;96104.00;;;;8255984;28;20207;-71
2023/07/20 13:55:47;;;;;;;2.42;1.50;;;;;31.80;96093.00;;;;8257878;28;20258;-71
2023/07/20 13:59:54;;;;;;;1.55;1.50;;;;;32.20;96087.00;;;;8234476;28;20317;-71
2023/07/20 14:04:00;;;;;;;2.80;1.45;;;;;32.10;96080.00;;;;8260864;28;20588;-72
2023/07/20 14:08:08;;;;;;;1.70;1.60;;;;;32.50;96081.00;;;;8257665;28;20214;-69
2023/07/20 14:12:13;;;;;;;3.25;2.00;;;;;32.90;96078.00;;;;8258045;28;20206;-70
2023/07/20 14:16:20;;;;;;;2.70;1.83;;;;;33.40;96075.00;;;;8258161;28;20203;-69
2023/07/20 14:20:23;;;;;;;1.65;1.52;;;;;33.30;96075.00;;;;8257134;28;20261;-72
2023/07/20 14:24:37;;;;;;;1.98;1.48;;;;;33.10;96060.00;;;;8258112;28;20203;-71
2023/07/20 14:28:42;;;;;;;3.88;1.63;;;;;33.10;96063.00;;;;8257255;28;20203;-70
2023/07/20 14:32:45;;;;;;;1.58;1.58;;;;;32.90;96063.00;;;;8257414;28;20218;-69
2023/07/20 14:36:49;;;;;;;2.47;1.70;;;;;31.70;96060.00;;;;8258507;28;20277;-72
2023/07/20 14:40:55;;;;;;;2.75;1.65;;;;;32.20;96053.00;;;;8256528;28;20317;-74
2023/07/20 14:44:58;;;;;;;4.20;1.75;;;;;32.50;96062.00;;;;8252392;28;20203;-71
2023/07/20 14:49:02;;;;;;;1.52;1.45;;;;;32.30;96059.00;;;;8250671;28;20207;-72
2023/07/20 14:53:05;;;;;;;2.53;1.50;;;;;32.20;96058.00;;;;8228674;28;20301;-72
2023/07/20 14:57:13;;;;;;;1.65;1.55;;;;;32.40;96054.00;;;;8249168;28;20215;-70
2023/07/20 15:01:19;;;;;;;1.83;1.58;;;;;32.10;96056.00;;;;8258345;28;20211;-72
2023/07/20 15:05:23;;;;;;;1.92;1.83;;;;;31.60;96059.00;;;;8258267;28;20588;-70
2023/07/20 15:09:28;;;;;;;1.70;1.60;;;;;31.60;96056.00;;;;8256791;28;20231;-68
2023/07/20 15:13:34;;;;;;;5.57;1.63;;;;;31.10;96048.00;;;;8257324;28;20214;-71
2023/07/20 15:17:45;;;;;;;1.45;1.42;;;;;31.20;96044.00;;;;8251192;28;20250;-71
2023/07/20 15:21:52;;;;;;;2.97;1.70;;;;;31.80;96047.00;;;;8258017;28;20732;-70
2023/07/20 15:25:55;;;;;;;2.03;1.40;;;;;31.90;96039.00;;;;8251953;28;20206;-71
2023/07/20 15:30:00;;;;;;;2.08;1.77;;;;;31.70;96044.00;;;;8256421;28;20211;-69
2023/07/20 15:34:06;;;;;;;1.90;1.77;;;;;31.90;96039.00;;;;8252429;28;20206;-76
2023/07/20 15:38:12;;;;;;;1.83;1.73;;;;;32.00;96031.00;;;;8259455;28;20253;-71
2023/07/20 15:42:17;;;;;;;2.17;1.75;;;;;32.00;96031.00;;;;8262388;28;20826;-68
2023/07/20 15:46:46;;;;;;;1.70;1.60;;;;;31.40;96019.00;;;;8230592;28;20257;-68
2023/07/20 15:50:53;;;;;;;1.75;1.42;;;;;31.60;96022.00;;;;8234712;28;20581;-72
2023/07/20 15:54:58;;;;;;;2.95;1.60;;;;;31.80;96026.00;;;;8256581;28;20253;-70
2023/07/20 15:59:03;;;;;;;3.22;2.10;;;;;32.00;96024.00;;;;8255207;28;20734;-70
2023/07/20 16:03:10;;;;;;;2.10;1.90;;;;;32.40;96018.00;;;;8256413;28;20718;-69
2023/07/20 16:07:13;;;;;;;1.85;1.73;;;;;32.10;96024.00;;;;8255321;28;20225;-73
2023/07/20 16:11:17;;;;;;;2.95;1.60;;;;;32.20;96016.00;;;;8258753;28;20235;-68
2023/07/20 16:15:22;;;;;;;1.80;1.70;;;;;32.70;96009.00;;;;8255633;28;20207;-71
2023/07/20 16:19:30;;;;;;;1.75;1.65;;;;;32.30;96016.00;;;;8254558;28;21018;-70
2023/07/20 16:23:33;;;;;;;2.55;1.42;;;;;31.30;96010.00;;;;8256282;28;20948;-72
2023/07/20 16:27:37;;;;;;;2.33;1.50;;;;;30.70;96018.00;;;;8254425;28;20211;-71
2023/07/20 16:31:42;;;;;;;1.77;1.67;;;;;30.50;96019.00;;;;8255615;28;20636;-68
2023/07/20 16:35:51;;;;;;;2.97;1.70;;;;;30.60;96018.00;;;;8255180;28;20210;-69
2023/07/20 16:39:54;;;;;;;2.17;1.80;;;;;31.00;96002.00;;;;8254446;28;20254;-73
2023/07/20 16:43:57;;;;;;;1.58;1.58;;;;;31.60;96004.00;;;;8247145;28;20214;-68
2023/07/20 16:48:03;;;;;;;2.53;1.90;;;;;32.00;96000.00;;;;8254042;28;20217;-70
2023/07/20 16:52:13;;;;;;;3.35;1.65;;;;;31.60;95995.00;;;;8255283;28;20203;-68
2023/07/20 16:56:16;;;;;;;2.40;1.60;;;;;31.50;96006.00;;;;8254186;28;20290;-72
2023/07/20 17:00:20;;;;;;;2.80;1.73;;;;;31.70;96009.00;;;;8253602;28;20273;-71
2023/07/20 17:04:25;;;;;;;1.80;1.70;;;;;32.00;96001.00;;;;8247236;28;20314;-68
2023/07/20 17:08:31;;;;;;;2.22;1.50;;;;;32.30;96002.00;;;;8232430;28;20237;-72
2023/07/20 17:12:41;;;;;;;3.42;1.67;;;;;32.70;95999.00;;;;8241930;28;20214;-70
2023/07/20 17:16:45;;;;;;;2.10;1.70;;;;;32.90;95998.00;;;;8248377;28;20209;-68
2023/07/20 17:20:50;;;;;;;2.53;1.85;;;;;33.10;96002.00;;;;8246392;28;20810;-69
2023/07/20 17:24:56;;;;;;;3.20;1.77;;;;;33.10;95994.00;;;;8249250;28;20198;-68
2023/07/20 17:29:05;;;;;;;1.85;1.40;;;;;33.00;96004.00;;;;8252530;28;20202;-69
2023/07/20 17:33:09;;;;;;;1.92;1.73;;;;;32.90;96006.00;;;;8228712;28;20273;-69
2023/07/20 17:37:16;;;;;;;2.75;1.48;;;;;32.10;95998.00;;;;8246917;28;20203;-73
2023/07/20 17:41:21;;;;;;;3.60;1.80;;;;;31.50;95999.00;;;;8248100;28;20238;-70
2023/07/20 17:45:25;;;;;;;1.70;1.50;;;;;31.20;95999.00;;;;8252184;28;20489;-67
2023/07/20 17:49:30;;;;;;;5.65;1.60;;;;;31.00;96007.00;;;;8251118;28;20237;-67
2023/07/20 17:53:34;;;;;;;2.60;1.65;;;;;31.00;96007.00;;;;8234856;28;20517;-69
2023/07/20 17:57:42;;;;;;;2.78;1.60;;;;;30.70;96009.00;;;;8245069;28;20201;-68
2023/07/20 18:01:47;;;;;;;2.78;1.75;;;;;30.40;96003.00;;;;8246378;28;20241;-70
2023/07/20 18:05:55;;;;;;;4.03;1.75;;;;;29.80;96008.00;;;;8232791;28;20604;-69
2023/07/20 18:10:03;;;;;;;4.85;1.77;;;;;29.20;96003.00;;;;8232276;28;20230;-68
2023/07/20 18:14:09;;;;;;;2.95;1.58;;;;;28.50;96003.00;;;;8247081;28;20206;-67
2023/07/20 18:18:17;;;;;;;2.85;1.70;;;;;28.00;96003.00;;;;8249322;28;20207;-69
2023/07/20 18:22:20;;;;;;;7.10;1.77;;;;;27.50;96006.00;;;;8230677;28;20313;-67
2023/07/20 18:26:25;;;;;;;4.55;1.50;;;;;27.10;96001.00;;;;8224274;28;20362;-70
2023/07/20 18:30:32;;;;;;;2.83;1.80;;;;;26.70;96006.00;;;;8249227;28;20274;-68
2023/07/20 18:34:36;;;;;;;8.55;1.92;;;;;26.20;96013.00;;;;8244103;28;20195;-69
2023/07/20 18:38:39;;;;;;;7.25;1.95;;;;;25.70;96010.00;;;;8254736;28;20214;-67
2023/07/20 18:42:42;;;;;;;3.85;1.58;;;;;25.00;96008.00;;;;8253619;28;20735;-69
2023/07/20 18:46:47;;;;;;;7.47;2.30;;;;;24.50;96013.00;;;;8252636;28;20203;-70
2023/07/20 18:50:50;;;;;;;4.90;1.90;;;;;23.90;96014.00;;;;8251318;28;20207;-67
2023/07/20 18:54:53;;;;;;;7.95;1.88;;;;;23.50;96004.00;;;;8247258;28;20195;-70
2023/07/20 18:58:58;;;;;;;3.75;1.83;;;;;23.00;96011.00;;;;8239919;28;20204;-68
2023/07/20 19:03:03;;;;;;;4.28;1.65;;;;;22.70;95997.00;;;;8250326;28;20254;-66
2023/07/20 19:07:07;;;;;;;4.00;1.77;;;;;22.30;96001.00;;;;8246961;28;20213;-69
2023/07/20 19:11:13;;;;;;;4.28;2.13;;;;;22.00;96014.00;;;;8255174;28;20700;-67
2023/07/20 19:15:21;;;;;;;1.88;1.75;;;;;21.90;96010.00;;;;8263005;28;20239;-68
2023/07/20 19:19:32;;;;;;;3.75;1.95;;;;;21.80;96017.00;;;;8253024;28;20742;-69
2023/07/20 19:23:39;;;;;;;4.45;1.90;;;;;21.70;96028.00;;;;8252859;28;20594;-68
2023/07/20 19:27:44;;;;;;;6.93;1.65;;;;;21.80;96026.00;;;;8247980;28;20203;-67
2023/07/20 19:31:47;;;;;;;1.77;1.67;;;;;21.80;96029.00;;;;8253574;28;20242;-67
2023/07/20 19:35:54;;;;;;;3.83;1.83;;;;;21.90;96028.00;;;;8259443;28;20305;-67
2023/07/20 19:39:58;;;;;;;4.82;1.65;;;;;21.90;96031.00;;;;8254021;28;20219;-67
2023/07/20 19:44:01;;;;;;;1.70;1.60;;;;;21.90;96037.00;;;;8243630;28;20294;-68
2023/07/20 19:48:06;;;;;;;3.20;1.88;;;;;21.80;96038.00;;;;8249941;28;20226;-65
2023/07/20 19:52:14;;;;;;;5.97;2.10;;;;;21.70;96045.00;;;;8258539;28;20218;-65
2023/07/20 19:56:21;;;;;;;5.38;1.80;;;;;21.70;96046.00;;;;8254130;28;20221;-65
2023/07/20 20:00:26;;;;;;;4.55;1.77;;;;;21.60;96055.00;;;;8249569;28;20234;-65
2023/07/20 20:04:32;;;;;;;3.65;1.70;;;;;21.40;96047.00;;;;8251189;28;20238;-66
2023/07/20 20:08:40;;;;;;;3.35;1.80;;;;;21.20;96053.00;;;;8249623;28;20643;-65
2023/07/20 20:12:47;;;;;;;3.28;2.00;;;;;21.10;96054.00;;;;8249477;28;20313;-65
2023/07/20 20:16:52;;;;;;;1.83;1.70;;;;;21.00;96055.00;;;;8228158;28;20217;-65
2023/07/20 20:20:58;;;;;;;1.90;1.80;;;;;20.90;96048.00;;;;8250571;28;20257;-65
2023/07/20 20:25:03;;;;;;;3.38;1.80;;;;;20.80;96051.00;;;;8252099;28;20202;-65
2023/07/20 20:29:06;;;;;;;3.67;1.77;;;;;20.70;96058.00;;;;8251902;28;20230;-67